Time;durP1;ratioP1;P1;durP2;ratioP2;P2;SDS_P1;SDS_P2;PMS_P1;PMS_P2;Temp;Humidity;BMP_temperature;BMP_pressure;BME280_temperature;BME280_humidity;BME280_pressure;Samples;Min_cycle;Max_cycle;Signal;HPM_P1;HPM_P2
2022/12/04 00:02:21;;;;;;;50.40;18.02;;;;;;;-143.48;73.69;118439.88;5036120;28;20466;-74
2022/12/04 00:04:47;;;;;;;52.53;20.25;;;;;;;-143.48;73.61;118439.88;5035970;28;20043;-73
2022/12/04 00:07:12;;;;;;;54.45;21.27;;;;;;;-143.48;73.79;118439.88;5036040;28;20476;-74
2022/12/04 00:09:37;;;;;;;58.00;20.48;;;;;;;-143.48;73.36;118439.88;5035834;28;20055;-75
2022/12/04 00:12:03;;;;;;;55.38;20.25;;;;;;;-143.48;72.70;118439.88;5035819;28;20052;-73
2022/12/04 00:14:28;;;;;;;59.63;21.77;;;;;;;-143.48;73.03;118439.88;5035908;28;20028;-74
2022/12/04 00:16:53;;;;;;;61.45;20.73;;;;;;;-143.48;72.90;118439.88;5035889;28;20028;-74
2022/12/04 00:19:19;;;;;;;58.83;21.88;;;;;;;-143.48;74.02;118439.88;5035718;28;20029;-75
2022/12/04 00:21:44;;;;;;;61.53;20.95;;;;;;;-143.48;73.28;118439.88;5035831;28;20116;-75
2022/12/04 00:24:10;;;;;;;56.55;20.65;;;;;;;-143.48;73.03;118439.88;5035876;28;20048;-75
2022/12/04 00:26:35;;;;;;;56.35;20.27;;;;;;;-143.48;72.89;118439.88;5035725;28;20095;-73
2022/12/04 00:29:01;;;;;;;57.67;21.63;;;;;;;-143.48;73.39;118439.88;5035806;28;20029;-74
2022/12/04 00:31:27;;;;;;;58.17;21.73;;;;;;;-143.48;72.40;118439.88;5035535;28;20496;-74
2022/12/04 00:33:53;;;;;;;58.58;23.05;;;;;;;-143.48;73.59;118439.88;5035566;28;20421;-76
2022/12/04 00:36:20;;;;;;;59.22;21.52;;;;;;;-143.48;73.88;118439.88;5036055;28;20032;-73
2022/12/04 00:38:46;;;;;;;57.17;21.42;;;;;;;-143.48;73.67;118439.88;5034162;28;20033;-73
2022/12/04 00:41:12;;;;;;;58.50;21.90;;;;;;;-143.48;73.45;118439.88;5035527;28;20378;-72
2022/12/04 00:43:38;;;;;;;63.83;21.80;;;;;;;-143.48;73.92;118439.88;5035403;28;20056;-74
2022/12/04 00:46:04;;;;;;;58.88;22.17;;;;;;;-143.48;73.38;118439.88;5035284;28;20056;-74
2022/12/04 00:48:29;;;;;;;57.20;22.58;;;;;;;-143.48;74.15;118439.88;5033887;28;20025;-74
2022/12/04 00:50:54;;;;;;;63.92;22.55;;;;;;;-143.48;73.09;118439.88;5035207;28;20036;-73
2022/12/04 00:53:20;;;;;;;58.65;22.27;;;;;;;-143.48;74.04;118439.88;5035107;28;20055;-73
2022/12/04 00:55:46;;;;;;;56.90;21.23;;;;;;;-143.48;73.36;118439.88;5033720;28;20114;-74
2022/12/04 00:58:11;;;;;;;58.47;21.55;;;;;;;-143.48;74.07;118439.88;5035114;28;20109;-74
2022/12/04 01:00:39;;;;;;;58.78;22.58;;;;;;;-143.48;73.56;118439.88;5035017;28;20017;-74
2022/12/04 01:03:05;;;;;;;54.75;21.05;;;;;;;-143.48;73.48;118439.88;5033720;28;20021;-75
2022/12/04 01:05:31;;;;;;;58.10;20.95;;;;;;;-143.48;74.27;118439.88;5035009;28;20029;-72
2022/12/04 01:07:56;;;;;;;61.38;22.40;;;;;;;-143.48;75.02;118439.88;5034804;28;20021;-75
2022/12/04 01:10:22;;;;;;;59.65;21.98;;;;;;;-143.48;74.89;118439.88;5034830;28;20176;-72
2022/12/04 01:12:51;;;;;;;59.25;21.40;;;;;;;-143.48;74.63;118439.88;5034766;28;20067;-75
2022/12/04 01:15:17;;;;;;;61.67;21.15;;;;;;;-143.48;74.80;118439.88;5033506;28;20495;-74
2022/12/04 01:17:44;;;;;;;58.35;21.15;;;;;;;-143.48;74.25;118439.88;5033591;28;20025;-74
2022/12/04 01:20:11;;;;;;;60.17;20.60;;;;;;;-143.48;73.43;118439.88;5034740;28;20468;-75
2022/12/04 01:22:36;;;;;;;54.53;21.08;;;;;;;-143.48;74.56;118439.88;5034779;28;20021;-73
2022/12/04 01:25:01;;;;;;;60.00;21.98;;;;;;;-143.48;75.10;118439.88;5034857;28;20164;-73
2022/12/04 01:27:27;;;;;;;54.05;21.42;;;;;;;-143.48;75.65;118439.88;5034684;28;20032;-73
2022/12/04 01:29:52;;;;;;;56.50;22.00;;;;;;;-143.48;74.46;118439.88;5033560;28;20385;-74
2022/12/04 01:32:17;;;;;;;61.78;22.30;;;;;;;-143.48;73.80;118439.88;5035084;28;20491;-74
2022/12/04 01:34:42;;;;;;;61.88;22.33;;;;;;;-143.48;74.02;118439.88;5035261;28;20039;-74
2022/12/04 01:37:08;;;;;;;54.67;21.55;;;;;;;-143.48;73.65;118439.88;5034153;28;20465;-74
2022/12/04 01:39:35;;;;;;;60.97;22.20;;;;;;;-143.48;73.64;118439.88;5035542;28;20055;-72
2022/12/04 01:42:01;;;;;;;62.80;22.48;;;;;;;-143.48;74.57;118439.88;5035978;28;20021;-74
2022/12/04 01:44:29;;;;;;;60.75;22.13;;;;;;;-143.48;73.50;118439.88;5035835;28;20032;-74
2022/12/04 01:46:56;;;;;;;58.08;22.08;;;;;;;-143.48;74.12;118439.88;5039539;28;20067;-75
2022/12/04 01:49:22;;;;;;;62.58;23.02;;;;;;;-143.48;73.89;118439.88;5044010;28;20041;-74
2022/12/04 01:51:51;;;;;;;59.42;22.70;;;;;;;-143.48;74.06;118439.88;5044407;28;20040;-74
2022/12/04 01:54:27;;;;;;;55.63;22.60;;;;;;;-143.48;74.33;118439.88;5045128;28;20033;-74
2022/12/04 01:56:58;;;;;;;58.35;21.73;;;;;;;-143.48;74.43;118439.88;5045727;28;20049;-74
2022/12/04 01:59:30;;;;;;;58.28;21.77;;;;;;;-143.48;74.94;118439.88;5044359;28;20017;-74
2022/12/04 02:02:04;;;;;;;61.43;21.93;;;;;;;-143.48;74.83;118439.88;5045244;28;20025;-75
2022/12/04 02:04:30;;;;;;;57.63;22.15;;;;;;;-143.48;74.60;118439.88;5045350;28;20813;-73
2022/12/04 02:06:55;;;;;;;57.15;21.95;;;;;;;-143.48;73.75;118439.88;5049920;28;20094;-76
2022/12/04 02:09:22;;;;;;;58.75;23.08;;;;;;;-143.48;74.61;118439.88;5051273;28;20021;-76
2022/12/04 02:11:55;;;;;;;60.15;23.02;;;;;;;-143.48;73.84;118439.88;5051080;28;20030;-78
2022/12/04 02:14:32;;;;;;;59.42;22.08;;;;;;;-143.48;74.00;118439.88;5051730;28;20029;-76
2022/12/04 02:17:31;;;;;;;55.83;21.95;;;;;;;-143.48;73.44;118439.88;5051838;28;20017;-76
2022/12/04 02:20:08;;;;;;;66.28;23.10;;;;;;;-143.48;73.61;118439.88;5051153;28;20048;-75
2022/12/04 02:22:53;;;;;;;54.20;21.45;;;;;;;-143.48;73.84;118439.88;5039216;28;20024;-75
2022/12/04 02:25:52;;;;;;;61.85;21.92;;;;;;;-143.48;74.33;118439.88;5037681;28;20025;-75
2022/12/04 02:28:24;;;;;;;59.35;22.77;;;;;;;-143.48;73.49;118439.88;5035565;28;20090;-75
2022/12/04 02:30:56;;;;;;;53.05;20.30;;;;;;;-143.48;73.08;118439.88;5034763;28;20021;-75
2022/12/04 02:33:30;;;;;;;57.03;21.02;;;;;;;-143.48;74.43;118439.88;5035861;28;20083;-75
2022/12/04 02:36:06;;;;;;;60.33;21.98;;;;;;;-143.48;74.50;118439.88;5035213;28;20144;-75
2022/12/04 02:38:37;;;;;;;51.45;20.17;;;;;;;-143.48;74.61;118439.88;5034631;28;20029;-75
2022/12/04 02:41:12;;;;;;;54.25;21.50;;;;;;;-143.48;74.22;118439.88;5034166;28;20504;-75
2022/12/04 02:43:51;;;;;;;55.15;21.52;;;;;;;-143.48;74.26;118439.88;5033804;28;20025;-75
2022/12/04 02:46:27;;;;;;;60.65;21.83;;;;;;;-143.48;74.49;118439.88;5033790;28;20084;-75
2022/12/04 02:48:56;;;;;;;55.17;21.52;;;;;;;-143.48;74.59;118439.88;5032230;28;20036;-75
2022/12/04 02:51:25;;;;;;;55.63;21.00;;;;;;;-143.48;74.74;118439.88;5031994;28;20030;-75
2022/12/04 02:53:55;;;;;;;58.53;22.02;;;;;;;-143.48;74.21;118439.88;5033431;28;20030;-75
2022/12/04 02:56:31;;;;;;;62.00;23.48;;;;;;;-143.48;73.82;118439.88;5033236;28;20501;-75
2022/12/04 02:59:01;;;;;;;55.03;21.75;;;;;;;-143.48;74.73;118439.88;5033398;28;20057;-75
2022/12/04 03:01:32;;;;;;;51.00;21.17;;;;;;;-143.48;74.25;118439.88;5033170;28;20108;-72
2022/12/04 03:04:02;;;;;;;58.13;23.00;;;;;;;-143.48;74.59;118439.88;5033118;28;20083;-63
2022/12/04 03:06:32;;;;;;;60.63;23.35;;;;;;;-143.48;74.62;118439.88;5032918;28;20112;-63
2022/12/04 03:09:05;;;;;;;54.85;21.67;;;;;;;-143.48;74.27;118439.88;5032897;28;20393;-63
2022/12/04 03:11:34;;;;;;;54.72;22.20;;;;;;;-143.48;75.25;118439.88;5032756;28;20026;-61
2022/12/04 03:14:10;;;;;;;57.92;22.48;;;;;;;-143.48;75.04;118439.88;5031437;28;20076;-62
2022/12/04 03:16:40;;;;;;;58.05;21.90;;;;;;;-143.48;75.16;118439.88;5031985;28;20021;-62
2022/12/04 03:19:17;;;;;;;59.80;21.55;;;;;;;-143.48;75.10;118439.88;5035511;28;20037;-62
2022/12/04 03:21:48;;;;;;;57.30;21.98;;;;;;;-143.48;75.28;118439.88;5036764;28;20474;-63
2022/12/04 03:24:23;;;;;;;61.40;22.65;;;;;;;-143.48;74.88;118439.88;5036626;28;20017;-62
2022/12/04 03:27:13;;;;;;;58.58;22.50;;;;;;;-143.48;75.17;118439.88;5036653;28;20396;-63
2022/12/04 03:29:51;;;;;;;61.90;21.95;;;;;;;-143.48;75.01;118439.88;5036485;28;20025;-69
2022/12/04 03:32:21;;;;;;;63.67;22.23;;;;;;;-143.48;75.54;118439.88;5036644;28;20029;-69
2022/12/04 03:35:12;;;;;;;59.63;22.75;;;;;;;-143.48;75.77;118439.88;5036498;28;20130;-69
2022/12/04 03:37:46;;;;;;;60.83;22.33;;;;;;;-143.48;75.22;118439.88;5026020;28;20041;-70
2022/12/04 03:40:38;;;;;;;60.00;22.02;;;;;;;-143.48;75.37;118439.88;5036476;28;20025;-69
2022/12/04 03:43:15;;;;;;;59.60;22.63;;;;;;;-143.48;75.35;118439.88;5036378;28;20052;-69
2022/12/04 03:45:46;;;;;;;59.72;22.13;;;;;;;-143.48;75.44;118439.88;5036446;28;20095;-71
2022/12/04 03:48:27;;;;;;;60.60;22.55;;;;;;;-143.48;75.33;118439.88;5036282;28;20100;-68
2022/12/04 03:51:06;;;;;;;58.20;22.20;;;;;;;-143.48;75.45;118439.88;5036037;28;20029;-69
2022/12/04 03:53:37;;;;;;;62.30;23.35;;;;;;;-143.48;74.79;118439.88;5036136;28;20017;-69
2022/12/04 03:56:14;;;;;;;57.83;23.33;;;;;;;-143.48;75.72;118439.88;5035906;28;20089;-69
2022/12/04 03:58:45;;;;;;;62.03;22.58;;;;;;;-143.48;75.98;118439.88;5036150;28;20122;-70
2022/12/04 04:01:13;;;;;;;59.00;21.83;;;;;;;-143.48;75.49;118439.88;5035962;28;20380;-69
2022/12/04 04:03:48;;;;;;;60.58;23.98;;;;;;;-143.48;74.67;118439.88;5035995;28;20098;-69
2022/12/04 04:06:22;;;;;;;59.05;22.98;;;;;;;-143.48;75.17;118439.88;5035869;28;20477;-69
2022/12/04 04:08:51;;;;;;;55.95;22.08;;;;;;;-143.48;75.59;118439.88;5034619;28;20445;-68
2022/12/04 04:11:22;;;;;;;61.35;22.17;;;;;;;-143.48;75.46;118439.88;5035573;28;20021;-68
2022/12/04 04:25:26;;;;;;;62.92;24.63;;;;;;;-143.48;75.20;118439.88;5035586;28;20090;-68
2022/12/04 04:27:53;;;;;;;57.95;22.67;;;;;;;-143.48;75.17;118439.88;5034979;28;20552;-68
2022/12/04 04:30:19;;;;;;;61.28;24.20;;;;;;;-143.48;74.84;118439.88;5035485;28;20017;-68
2022/12/04 04:32:49;;;;;;;63.33;23.45;;;;;;;-143.48;74.83;118439.88;5036056;28;20036;-69
2022/12/04 04:35:42;;;;;;;57.70;23.25;;;;;;;-143.48;74.73;118439.88;5035263;28;20036;-67
2022/12/04 04:38:30;;;;;;;61.93;21.87;;;;;;;-143.48;75.66;118439.88;5034020;28;20086;-67
2022/12/04 04:40:58;;;;;;;60.22;21.80;;;;;;;-143.48;76.04;118439.88;5035517;28;20048;-67
2022/12/04 04:43:25;;;;;;;61.10;23.95;;;;;;;-143.48;75.66;118439.88;5035162;28;20369;-68
2022/12/04 04:46:03;;;;;;;61.65;23.50;;;;;;;-143.48;75.14;118439.88;5035177;28;20033;-68
2022/12/04 04:48:34;;;;;;;59.22;23.55;;;;;;;-143.48;75.41;118439.88;5035132;28;20025;-68
2022/12/04 04:51:03;;;;;;;60.22;23.50;;;;;;;-143.48;76.85;118439.88;5034813;28;20477;-70
2022/12/04 04:53:35;;;;;;;58.97;24.20;;;;;;;-143.48;75.53;118439.88;5034970;28;20029;-68
2022/12/04 04:56:03;;;;;;;61.72;23.80;;;;;;;-143.48;75.94;118439.88;5033555;28;20092;-68
2022/12/04 04:58:28;;;;;;;64.00;24.80;;;;;;;-143.48;76.55;118439.88;5034882;28;20065;-68
2022/12/04 05:01:01;;;;;;;59.92;21.42;;;;;;;-143.48;75.46;118439.88;5034789;28;20405;-68
2022/12/04 05:03:27;;;;;;;60.45;23.40;;;;;;;-143.48;77.01;118439.88;5034796;28;20104;-68
2022/12/04 05:05:53;;;;;;;67.43;24.83;;;;;;;-143.48;77.01;118439.88;5034682;28;20056;-69
2022/12/04 05:08:18;;;;;;;64.60;24.70;;;;;;;-143.48;76.85;118439.88;5034671;28;20473;-69
2022/12/04 05:10:43;;;;;;;68.25;24.20;;;;;;;-143.48;75.93;118439.88;5034596;28;20461;-68
2022/12/04 05:13:11;;;;;;;57.70;22.58;;;;;;;-143.48;75.91;118439.88;5034500;28;20063;-68
2022/12/04 05:15:37;;;;;;;58.47;24.45;;;;;;;-143.48;76.82;118439.88;5034527;28;20029;-68
2022/12/04 05:18:02;;;;;;;63.15;23.35;;;;;;;-143.48;76.65;118439.88;5034583;28;20534;-69
2022/12/04 05:20:28;;;;;;;59.60;24.77;;;;;;;-143.48;76.24;118439.88;5034465;28;20048;-69
2022/12/04 05:22:53;;;;;;;57.85;22.33;;;;;;;-143.48;77.11;118439.88;5034477;28;20052;-68
2022/12/04 05:25:18;;;;;;;63.72;23.80;;;;;;;-143.48;76.30;118439.88;5034448;28;20025;-68
2022/12/04 05:27:43;;;;;;;67.50;24.67;;;;;;;-143.48;76.61;118439.88;5034326;28;20495;-68
2022/12/04 05:30:10;;;;;;;61.47;22.48;;;;;;;-143.48;75.94;118439.88;5034250;28;20034;-68
2022/12/04 05:32:35;;;;;;;59.13;22.65;;;;;;;-143.48;76.04;118439.88;5034322;28;20037;-69
2022/12/04 05:35:01;;;;;;;60.38;24.35;;;;;;;-143.48;77.20;118439.88;5034035;28;20032;-68
2022/12/04 05:37:26;;;;;;;60.55;23.65;;;;;;;-143.48;76.90;118439.88;5034071;28;20025;-68
2022/12/04 05:39:52;;;;;;;60.03;22.58;;;;;;;-143.48;76.96;118439.88;5033094;28;20029;-69
2022/12/04 05:42:18;;;;;;;62.63;23.95;;;;;;;-143.48;76.83;118439.88;5034047;28;20021;-68
2022/12/04 05:44:43;;;;;;;65.55;24.88;;;;;;;-143.48;77.24;118439.88;5033963;28;20112;-68
2022/12/04 05:47:09;;;;;;;60.35;23.88;;;;;;;-143.48;76.95;118439.88;5033888;28;20025;-68
2022/12/04 05:49:34;;;;;;;54.78;22.50;;;;;;;-143.48;76.95;118439.88;5032562;28;20029;-68
2022/12/04 05:52:01;;;;;;;60.95;23.52;;;;;;;-143.48;77.07;118439.88;5033820;28;20115;-68
2022/12/04 05:54:26;;;;;;;62.25;23.90;;;;;;;-143.48;76.86;118439.88;5033935;28;20025;-67
2022/12/04 05:56:51;;;;;;;60.25;25.25;;;;;;;-143.48;77.44;118439.88;5033685;28;20485;-68
2022/12/04 05:59:17;;;;;;;51.22;20.10;;;;;;;-143.48;76.56;118439.88;5033672;28;20033;-68
2022/12/04 06:01:43;;;;;;;61.05;23.50;;;;;;;-143.48;77.22;118439.88;5033745;28;20029;-68
2022/12/04 06:04:09;;;;;;;60.58;22.88;;;;;;;-143.48;77.52;118439.88;5033783;28;20057;-68
2022/12/04 06:06:35;;;;;;;65.70;23.52;;;;;;;-143.48;76.67;118439.88;5033607;28;20032;-68
2022/12/04 06:09:01;;;;;;;59.92;23.27;;;;;;;-143.48;77.15;118439.88;5032330;28;20116;-68
2022/12/04 06:11:29;;;;;;;61.45;24.02;;;;;;;-143.48;77.44;118439.88;5032195;28;20121;-68
2022/12/04 06:13:55;;;;;;;62.20;23.65;;;;;;;-143.48;77.30;118439.88;5033616;28;20500;-68
2022/12/04 06:16:26;;;;;;;64.10;23.50;;;;;;;-143.48;76.80;118439.88;5033535;28;20056;-67
2022/12/04 06:18:54;;;;;;;57.17;23.10;;;;;;;-143.48;76.94;118439.88;5033472;28;20048;-68
2022/12/04 06:21:22;;;;;;;53.47;22.98;;;;;;;-143.48;76.88;118439.88;5033400;28;20021;-68
2022/12/04 06:23:48;;;;;;;60.15;23.42;;;;;;;-143.48;76.49;118439.88;5032076;28;20037;-67
2022/12/04 06:26:14;;;;;;;64.05;23.98;;;;;;;-143.48;76.40;118439.88;5032089;28;20014;-69
2022/12/04 06:28:39;;;;;;;57.05;23.58;;;;;;;-143.48;76.76;118439.88;5032046;28;20030;-69
2022/12/04 06:31:08;;;;;;;58.35;23.02;;;;;;;-143.48;75.23;118439.88;5033210;28;20021;-69
2022/12/04 06:33:34;;;;;;;58.45;22.73;;;;;;;-143.48;76.35;118439.88;5033206;28;20071;-69
2022/12/04 06:36:04;;;;;;;61.42;22.77;;;;;;;-143.48;75.81;118439.88;5033165;28;20021;-67
2022/12/04 06:38:30;;;;;;;64.78;21.75;;;;;;;-143.48;75.94;118439.88;5033177;28;20021;-67
2022/12/04 06:40:56;;;;;;;60.85;23.75;;;;;;;-143.48;77.27;118439.88;5033179;28;20071;-63
2022/12/04 06:43:22;;;;;;;60.17;23.52;;;;;;;-143.48;77.05;118439.88;5033062;28;20036;-63
2022/12/04 06:45:47;;;;;;;55.80;22.40;;;;;;;-143.48;76.64;118439.88;5031805;28;20025;-63
2022/12/04 06:48:13;;;;;;;60.70;23.30;;;;;;;-143.48;76.39;118439.88;5031945;28;20036;-62
2022/12/04 06:50:40;;;;;;;58.42;23.50;;;;;;;-143.48;77.69;118439.88;5032674;28;20026;-62
2022/12/04 06:53:05;;;;;;;60.92;22.63;;;;;;;-143.48;77.00;118439.88;5033166;28;20060;-62
2022/12/04 06:55:31;;;;;;;55.22;22.88;;;;;;;-143.48;76.74;118439.88;5031650;28;20068;-63
2022/12/04 06:57:56;;;;;;;60.08;22.38;;;;;;;-143.48;76.44;118439.88;5033112;28;20155;-63
2022/12/04 07:00:21;;;;;;;54.90;22.67;;;;;;;-143.48;76.45;118439.88;5031962;28;20151;-62
2022/12/04 07:02:47;;;;;;;59.33;22.42;;;;;;;-143.48;77.23;118439.88;5032987;28;20029;-64
2022/12/04 07:05:12;;;;;;;59.40;22.75;;;;;;;-143.48;77.22;118439.88;5032938;28;20115;-63
2022/12/04 07:07:37;;;;;;;56.80;22.45;;;;;;;-143.48;76.53;118439.88;5032796;28;20124;-63
2022/12/04 07:10:03;;;;;;;57.65;23.20;;;;;;;-143.48;76.77;118439.88;5032797;28;20032;-63
2022/12/04 07:12:29;;;;;;;52.22;21.73;;;;;;;-143.48;76.01;118439.88;5031466;28;20091;-61
2022/12/04 07:14:54;;;;;;;54.75;21.52;;;;;;;-143.48;76.07;118439.88;5032762;28;20034;-62
2022/12/04 07:17:19;;;;;;;68.75;23.98;;;;;;;-143.48;76.00;118439.88;5031497;28;20075;-62
2022/12/04 07:19:45;;;;;;;53.63;21.73;;;;;;;-143.48;75.12;118439.88;5032624;28;20026;-68
2022/12/04 07:22:10;;;;;;;55.65;22.40;;;;;;;-143.48;76.03;118439.88;5032823;28;20381;-68
2022/12/04 07:24:38;;;;;;;54.70;22.50;;;;;;;-143.48;76.80;118439.88;5032768;28;20049;-68
2022/12/04 07:27:03;;;;;;;59.28;22.75;;;;;;;-143.48;76.87;118439.88;5034151;28;20031;-69
2022/12/04 07:29:29;;;;;;;64.88;23.05;;;;;;;-143.48;76.97;118439.88;5044778;28;20049;-67
2022/12/04 07:31:54;;;;;;;55.75;22.95;;;;;;;-143.48;76.78;118439.88;5034531;28;20034;-68
2022/12/04 07:34:20;;;;;;;60.63;24.92;;;;;;;-143.48;76.87;118439.88;5032731;28;20044;-68
2022/12/04 07:36:45;;;;;;;62.42;23.33;;;;;;;-143.48;76.99;118439.88;5032529;28;20393;-68
2022/12/04 07:39:10;;;;;;;62.83;24.20;;;;;;;-143.48;78.09;118439.88;5032532;28;20473;-68
2022/12/04 07:41:36;;;;;;;57.85;23.33;;;;;;;-143.48;77.99;118439.88;5032604;28;20017;-68
2022/12/04 07:44:01;;;;;;;61.78;24.98;;;;;;;-143.48;76.83;118439.88;5031185;28;20032;-68
2022/12/04 07:46:27;;;;;;;59.22;23.02;;;;;;;-143.48;76.77;118439.88;5032440;28;20027;-68
2022/12/04 07:48:57;;;;;;;56.13;22.55;;;;;;;-143.48;76.40;118439.88;5032472;28;20032;-74
2022/12/04 07:51:25;;;;;;;63.08;23.58;;;;;;;-143.48;76.97;118439.88;5032783;28;20025;-74
2022/12/04 07:53:52;;;;;;;60.65;23.42;;;;;;;-143.48;76.37;118439.88;5032991;28;20037;-74
2022/12/04 07:56:18;;;;;;;62.95;23.38;;;;;;;-143.48;76.42;118439.88;5032523;28;20100;-74
2022/12/04 07:58:44;;;;;;;58.78;22.98;;;;;;;-143.48;76.26;118439.88;5031591;28;20056;-74
2022/12/04 08:01:16;;;;;;;61.75;23.52;;;;;;;-143.48;76.69;118439.88;5031336;28;20067;-74
2022/12/04 08:03:43;;;;;;;60.80;24.33;;;;;;;-143.48;76.14;118439.88;5035666;28;20029;-74
2022/12/04 08:06:09;;;;;;;61.58;23.88;;;;;;;-143.48;76.64;118439.88;5036200;28;20021;-73
2022/12/04 08:08:35;;;;;;;60.40;23.02;;;;;;;-143.48;76.02;118439.88;5036159;28;20033;-74
2022/12/04 08:11:03;;;;;;;63.38;23.42;;;;;;;-143.48;77.06;118439.88;5035846;28;20029;-74
2022/12/04 08:13:29;;;;;;;62.80;22.75;;;;;;;-143.48;77.57;118439.88;5036022;28;20025;-74
2022/12/04 08:15:54;;;;;;;61.28;24.02;;;;;;;-143.48;77.24;118439.88;5034769;28;20159;-75
2022/12/04 08:18:19;;;;;;;60.30;23.58;;;;;;;-143.48;77.28;118439.88;5035909;28;20451;-75
2022/12/04 08:20:45;;;;;;;63.78;23.65;;;;;;;-143.48;76.95;118439.88;5034451;28;20014;-75
2022/12/04 08:23:10;;;;;;;60.88;24.33;;;;;;;-143.48;77.35;118439.88;5037008;28;20029;-75
2022/12/04 08:25:39;;;;;;;54.97;23.15;;;;;;;-143.48;77.12;118439.88;5035974;28;20346;-75
2022/12/04 08:28:05;;;;;;;56.88;23.52;;;;;;;-143.48;77.17;118439.88;5035598;28;20029;-75
2022/12/04 08:30:32;;;;;;;59.85;23.15;;;;;;;-143.48;77.00;118439.88;5035561;28;20037;-75
2022/12/04 08:32:57;;;;;;;59.35;24.00;;;;;;;-143.48;76.49;118439.88;5035613;28;20412;-75
2022/12/04 08:35:22;;;;;;;63.67;24.33;;;;;;;-143.48;77.23;118439.88;5035043;28;20025;-74
2022/12/04 08:37:48;;;;;;;57.20;22.85;;;;;;;-143.48;76.19;118439.88;5040406;28;20049;-75
2022/12/04 08:40:13;;;;;;;61.30;23.48;;;;;;;-143.48;76.30;118439.88;5042388;28;20035;-75
2022/12/04 08:42:39;;;;;;;62.22;23.75;;;;;;;-143.48;75.72;118439.88;5035689;28;20029;-75
2022/12/04 08:45:05;;;;;;;57.45;23.23;;;;;;;-143.48;75.82;118439.88;5035302;28;20366;-75
2022/12/04 08:47:30;;;;;;;57.22;21.58;;;;;;;-143.48;75.64;118439.88;5036073;28;20063;-75
2022/12/04 08:49:55;;;;;;;56.30;22.90;;;;;;;-143.48;76.46;118439.88;5035240;28;20021;-75
2022/12/04 08:52:21;;;;;;;60.67;23.30;;;;;;;-143.48;76.88;118439.88;5035263;28;20027;-76
2022/12/04 08:54:46;;;;;;;58.72;22.67;;;;;;;-143.48;76.72;118439.88;5035004;28;20025;-75
2022/12/04 08:57:11;;;;;;;57.40;22.38;;;;;;;-143.48;77.13;118439.88;5035273;28;20477;-75
2022/12/04 08:59:36;;;;;;;60.05;21.90;;;;;;;-143.48;76.22;118439.88;5034109;28;20029;-75
2022/12/04 09:02:02;;;;;;;60.17;23.98;;;;;;;-143.48;76.80;118439.88;5035338;28;20181;-74
2022/12/04 09:04:27;;;;;;;57.17;21.88;;;;;;;-143.48;76.83;118439.88;5035367;28;20034;-75
2022/12/04 09:06:52;;;;;;;55.88;21.23;;;;;;;-143.48;77.67;118439.88;5035314;28;20159;-75
2022/12/04 09:09:17;;;;;;;56.75;21.77;;;;;;;-143.48;76.96;118439.88;5035226;28;20022;-76
2022/12/04 09:11:46;;;;;;;52.67;21.45;;;;;;;-143.48;76.64;118439.88;5035021;28;20155;-75
2022/12/04 09:14:11;;;;;;;52.53;21.05;;;;;;;-143.48;77.77;118439.88;5034852;28;20081;-74
2022/12/04 09:16:37;;;;;;;48.83;19.73;;;;;;;-143.48;77.71;118439.88;5034894;28;20473;-73
2022/12/04 09:19:02;;;;;;;53.55;21.85;;;;;;;-143.48;77.76;118439.88;5035134;28;20517;-75
2022/12/04 09:21:27;;;;;;;58.22;23.33;;;;;;;-143.48;77.41;118439.88;5034933;28;20018;-76
2022/12/04 09:23:53;;;;;;;58.67;23.25;;;;;;;-143.48;77.50;118439.88;5033462;28;20037;-75
2022/12/04 09:26:24;;;;;;;60.53;23.17;;;;;;;-143.48;77.04;118439.88;5033585;28;20522;-74
2022/12/04 09:28:51;;;;;;;54.13;21.08;;;;;;;-143.48;77.48;118439.88;5034655;28;20033;-75
2022/12/04 09:31:17;;;;;;;53.72;22.25;;;;;;;-143.48;78.08;118439.88;5034611;28;20441;-75
2022/12/04 09:33:43;;;;;;;62.78;23.38;;;;;;;-143.48;78.04;118439.88;5034660;28;20111;-75
2022/12/04 09:36:14;;;;;;;47.70;18.63;;;;;;;-143.48;77.90;118439.88;5033272;28;20477;-75
2022/12/04 09:38:44;;;;;;;60.65;22.77;;;;;;;-143.48;79.09;118439.88;5034494;28;20018;-75
2022/12/04 09:41:31;;;;;;;59.90;21.92;;;;;;;-143.48;79.17;118439.88;5033287;28;20469;-75
2022/12/04 09:44:07;;;;;;;54.78;20.65;;;;;;;-143.48;78.81;118439.88;5033266;28;20028;-75
2022/12/04 09:46:38;;;;;;;62.50;22.25;;;;;;;-143.48;79.25;118439.88;5034390;28;20029;-75
2022/12/04 09:49:13;;;;;;;60.42;23.08;;;;;;;-143.48;79.79;118439.88;5034390;28;20095;-75
2022/12/04 09:51:40;;;;;;;60.25;22.20;;;;;;;-143.48;80.51;118439.88;5034132;28;20034;-75
2022/12/04 09:54:15;;;;;;;60.85;22.75;;;;;;;-143.48;81.03;118439.88;5034306;28;20392;-75
2022/12/04 09:56:46;;;;;;;50.05;19.67;;;;;;;-143.48;79.42;118439.88;5034043;28;20045;-75
2022/12/04 09:59:22;;;;;;;50.45;19.80;;;;;;;-143.48;80.97;118439.88;5034093;28;20025;-74
2022/12/04 10:01:57;;;;;;;61.95;22.52;;;;;;;-143.48;81.42;118439.88;5032795;28;20022;-75
2022/12/04 10:04:23;;;;;;;50.28;18.83;;;;;;;-143.48;80.63;118439.88;5034123;28;20540;-75
2022/12/04 10:07:24;;;;;;;51.92;21.20;;;;;;;-143.48;80.47;118439.88;5033995;28;20385;-76
2022/12/04 10:10:27;;;;;;;52.15;20.25;;;;;;;-143.48;81.03;118439.88;4982506;28;20041;-74
2022/12/04 10:12:59;;;;;;;;;;;;;;;-143.48;82.02;118439.88;5020259;28;20095;-74
2022/12/04 10:15:36;;;;;;;50.65;19.50;;;;;;;-143.48;81.78;118439.88;5034014;28;20007;-74
2022/12/04 10:18:07;;;;;;;49.45;18.83;;;;;;;-143.48;81.32;118439.88;5032305;28;20029;-63
2022/12/04 10:20:52;;;;;;;54.55;21.17;;;;;;;-143.48;81.86;118439.88;5033517;28;20021;-62
2022/12/04 10:23:42;;;;;;;52.53;19.42;;;;;;;-143.48;81.54;118439.88;5033489;28;20025;-63
2022/12/04 10:26:15;;;;;;;48.35;19.77;;;;;;;-143.48;80.18;118439.88;5031653;28;20032;-63
2022/12/04 10:28:47;;;;;;;45.65;17.95;;;;;;;-143.48;80.32;118439.88;5033394;28;20029;-63
2022/12/04 10:31:14;;;;;;;46.97;19.55;;;;;;;-143.48;80.32;118439.88;5033377;28;20032;-63
2022/12/04 10:33:57;;;;;;;51.90;19.88;;;;;;;-143.48;79.94;118439.88;5033399;28;20064;-62
2022/12/04 10:36:30;;;;;;;50.47;18.88;;;;;;;-143.48;80.07;118439.88;5033291;28;20512;-63
2022/12/04 10:39:00;;;;;;;47.00;18.55;;;;;;;-143.48;79.58;118439.88;5033256;28;20025;-63
2022/12/04 10:42:05;;;;;;;44.30;17.15;;;;;;;-143.48;78.51;118439.88;5031753;28;20017;-62
2022/12/04 10:44:30;;;;;;;41.42;16.23;;;;;;;-143.48;79.03;118439.88;5003033;28;20037;-62
2022/12/04 10:47:00;;;;;;;44.05;16.40;;;;;;;-143.48;78.22;118439.88;5033160;28;20507;-63
2022/12/04 10:49:28;;;;;;;48.05;18.42;;;;;;;-143.48;77.80;118439.88;5033036;28;20022;-63
2022/12/04 10:51:54;;;;;;;43.03;17.15;;;;;;;-143.48;77.69;118439.88;5033065;28;20462;-63
2022/12/04 10:54:42;;;;;;;44.83;16.48;;;;;;;-143.48;76.93;118439.88;5031926;28;20025;-74
2022/12/04 10:57:10;;;;;;;42.28;16.42;;;;;;;-143.48;77.20;118439.88;5033305;28;20087;-74
2022/12/04 10:59:54;;;;;;;40.78;14.60;;;;;;;-143.48;77.67;118439.88;5033430;28;20029;-74
2022/12/04 11:02:28;;;;;;;39.95;15.13;;;;;;;-143.48;77.06;118439.88;5033326;28;20029;-75
2022/12/04 11:04:56;;;;;;;41.20;15.75;;;;;;;-143.48;77.58;118439.88;5033258;28;20049;-76
2022/12/04 11:07:30;;;;;;;41.35;16.38;;;;;;;-143.48;77.54;118439.88;5033283;28;20032;-75
2022/12/04 11:10:05;;;;;;;40.85;15.88;;;;;;;-143.48;77.55;118439.88;5033314;28;20048;-75
2022/12/04 11:12:31;;;;;;;35.53;14.98;;;;;;;-143.48;77.20;118439.88;5033513;28;20067;-75
2022/12/04 11:15:06;;;;;;;37.83;15.95;;;;;;;-143.48;77.81;118439.88;5033252;28;20100;-74
2022/12/04 11:17:32;;;;;;;36.00;14.10;;;;;;;-143.48;76.67;118439.88;5033372;28;20469;-73